Time;durP1;ratioP1;P1;durP2;ratioP2;P2;SDS_P1;SDS_P2;PMS_P1;PMS_P2;Temp;Humidity;BMP_temperature;BMP_pressure;BME280_temperature;BME280_humidity;BME280_pressure;Samples;Min_cycle;Max_cycle;Signal;HPM_P1;HPM_P2
2023/02/14 00:00:14;;;;;;;10.75;9.65;;;5.50;99.90;;;;;;5028163;28;20610;-73
2023/02/14 00:02:41;;;;;;;11.45;10.25;;;5.40;99.90;;;;;;5026322;28;20192;-74
2023/02/14 00:05:08;;;;;;;11.70;9.98;;;5.40;99.90;;;;;;5028219;28;20338;-73
2023/02/14 00:07:36;;;;;;;11.25;9.93;;;5.40;99.90;;;;;;5031156;28;20287;-73
2023/02/14 00:10:03;;;;;;;11.15;10.05;;;5.40;99.90;;;;;;5024777;28;20250;-73
2023/02/14 00:12:30;;;;;;;11.30;10.10;;;5.30;99.90;;;;;;5035372;28;20306;-74
2023/02/14 00:17:43;;;;;;;11.70;9.73;;;5.30;99.90;;;;;;5026774;28;20257;-73
2023/02/14 00:20:11;;;;;;;11.20;9.52;;;5.30;99.90;;;;;;5011600;28;20778;-72
2023/02/14 00:22:38;;;;;;;11.48;10.27;;;5.30;99.90;;;;;;4993093;28;20206;-74
2023/02/14 00:25:06;;;;;;;13.40;10.85;;;5.30;99.90;;;;;;5030611;28;20251;-73
2023/02/14 00:27:33;;;;;;;12.23;10.55;;;5.30;99.90;;;;;;5011399;28;20206;-74
2023/02/14 00:30:01;;;;;;;10.93;9.80;;;5.30;99.90;;;;;;5026973;28;20223;-74
2023/02/14 00:32:29;;;;;;;11.20;10.00;;;5.30;99.90;;;;;;5029411;28;20218;-74
2023/02/14 00:34:58;;;;;;;11.65;10.45;;;5.30;99.90;;;;;;5010137;28;20228;-74
2023/02/14 00:37:25;;;;;;;12.27;10.93;;;5.30;99.90;;;;;;5025779;28;20282;-74
2023/02/14 00:39:52;;;;;;;11.38;10.13;;;5.30;99.90;;;;;;5027361;28;20659;-72
2023/02/14 00:42:19;;;;;;;11.32;9.93;;;5.30;99.90;;;;;;5026399;28;20383;-73
2023/02/14 00:44:46;;;;;;;12.23;10.52;;;5.30;99.90;;;;;;5028476;28;20302;-73
2023/02/14 00:47:13;;;;;;;11.23;9.93;;;5.30;99.90;;;;;;5010025;28;20231;-74
2023/02/14 00:49:40;;;;;;;11.35;10.18;;;5.20;99.90;;;;;;5023182;28;20311;-72
2023/02/14 00:52:10;;;;;;;11.80;10.60;;;5.20;99.90;;;;;;5026180;28;20302;-73
2023/02/14 00:54:37;;;;;;;10.75;9.52;;;5.20;99.90;;;;;;5028174;28;20654;-72
2023/02/14 00:57:04;;;;;;;10.75;9.63;;;5.20;99.90;;;;;;5007480;28;20199;-73
2023/02/14 00:59:31;;;;;;;11.27;10.15;;;5.20;99.90;;;;;;5023824;28;20743;-73
2023/02/14 01:01:58;;;;;;;10.30;9.30;;;5.10;99.90;;;;;;5010822;28;20274;-73
2023/02/14 01:04:25;;;;;;;10.05;9.02;;;5.10;99.90;;;;;;5025219;28;20315;-73
2023/02/14 01:06:52;;;;;;;10.68;9.57;;;5.10;99.90;;;;;;5026871;28;20287;-72
2023/02/14 01:09:21;;;;;;;9.75;8.65;;;5.00;99.90;;;;;;5023769;28;20309;-73
2023/02/14 01:11:48;;;;;;;10.18;9.15;;;5.00;99.90;;;;;;5010011;28;20314;-73
2023/02/14 01:14:15;;;;;;;10.45;9.32;;;5.00;99.90;;;;;;5007632;28;20219;-72
2023/02/14 01:16:43;;;;;;;10.48;9.40;;;5.00;99.90;;;;;;5024613;28;20286;-72
2023/02/14 01:19:10;;;;;;;10.02;9.02;;;5.00;99.90;;;;;;5026855;28;20756;-72
2023/02/14 01:21:37;;;;;;;9.55;8.65;;;4.90;99.90;;;;;;5019614;28;20727;-72
2023/02/14 01:24:06;;;;;;;10.82;9.55;;;4.90;99.90;;;;;;5028240;28;20250;-73
2023/02/14 01:26:36;;;;;;;10.32;9.27;;;4.90;99.90;;;;;;5024165;28;20299;-73
2023/02/14 01:29:04;;;;;;;10.25;9.18;;;4.90;99.90;;;;;;5009936;28;20222;-73
2023/02/14 01:31:33;;;;;;;9.75;8.75;;;4.80;99.90;;;;;;5002654;28;20216;-72
2023/02/14 01:34:00;;;;;;;10.88;9.75;;;4.80;99.90;;;;;;5022989;28;20438;-73
2023/02/14 01:36:29;;;;;;;9.73;8.75;;;4.80;99.90;;;;;;5027387;28;20286;-73
2023/02/14 01:38:58;;;;;;;9.63;8.63;;;4.80;99.90;;;;;;5026261;28;20322;-73
2023/02/14 01:41:30;;;;;;;10.50;9.35;;;4.80;99.90;;;;;;5023997;28;20578;-73
2023/02/14 01:44:01;;;;;;;9.05;8.15;;;4.80;99.90;;;;;;5026524;28;20308;-72
2023/02/14 01:46:30;;;;;;;10.25;9.25;;;4.80;99.90;;;;;;5031230;28;20281;-72
2023/02/14 01:49:02;;;;;;;10.23;9.00;;;4.80;99.90;;;;;;5024677;28;20302;-72
2023/02/14 01:51:30;;;;;;;10.73;9.50;;;4.80;99.90;;;;;;5030135;28;20287;-74
2023/02/14 01:53:58;;;;;;;9.18;8.27;;;4.90;99.90;;;;;;5022478;28;20374;-73
2023/02/14 01:56:31;;;;;;;9.45;8.43;;;4.80;99.90;;;;;;5007834;28;20288;-73
2023/02/14 01:59:01;;;;;;;9.25;8.35;;;4.80;99.90;;;;;;5024942;28;20795;-73
2023/02/14 02:01:30;;;;;;;9.98;8.98;;;4.80;99.90;;;;;;5025787;28;20204;-73
2023/02/14 02:04:00;;;;;;;9.35;8.45;;;4.80;99.90;;;;;;5028961;28;20294;-73
2023/02/14 02:06:31;;;;;;;10.13;9.02;;;4.80;99.90;;;;;;5008432;28;20231;-73
2023/02/14 02:09:08;;;;;;;9.23;8.32;;;4.80;99.90;;;;;;5005761;28;20740;-73
2023/02/14 02:11:36;;;;;;;10.10;9.07;;;4.80;99.90;;;;;;5025848;28;20191;-73
2023/02/14 02:14:05;;;;;;;9.68;8.68;;;4.80;99.90;;;;;;5023393;28;20704;-73
2023/02/14 02:17:05;;;;;;;9.27;8.38;;;4.80;99.90;;;;;;5024991;28;20294;-72
2023/02/14 02:20:10;;;;;;;10.30;9.30;;;4.70;99.90;;;;;;5024988;28;20346;-74
2023/02/14 02:23:12;;;;;;;9.95;8.93;;;4.70;99.90;;;;;;5008959;28;20196;-74
2023/02/14 02:25:57;;;;;;;9.38;8.45;;;4.60;99.90;;;;;;5010684;28;20592;-74
2023/02/14 02:28:55;;;;;;;10.55;9.45;;;4.60;99.90;;;;;;5027568;28;20672;-74
2023/02/14 02:31:48;;;;;;;9.98;8.98;;;4.60;99.90;;;;;;5026827;28;20286;-74
2023/02/14 02:34:40;;;;;;;9.77;8.77;;;4.60;99.90;;;;;;5030243;28;20343;-74
2023/02/14 02:37:30;;;;;;;9.93;8.77;;;4.50;99.90;;;;;;5030539;28;20239;-73
2023/02/14 02:40:16;;;;;;;9.63;8.63;;;4.50;99.90;;;;;;5025194;28;20661;-75
2023/02/14 02:42:52;;;;;;;9.00;8.15;;;4.40;99.90;;;;;;5027253;28;20283;-74
2023/02/14 02:45:28;;;;;;;9.88;8.88;;;4.50;99.90;;;;;;5031174;28;20684;-74
2023/02/14 02:48:04;;;;;;;9.90;8.90;;;4.50;99.90;;;;;;5035228;28;20301;-74
2023/02/14 02:53:27;;;;;;;9.95;9.00;;;4.40;99.90;;;;;;5019407;28;20226;-75
2023/02/14 02:58:48;;;;;;;9.55;8.75;;;4.30;99.90;;;;;;5026008;28;20746;-74
2023/02/14 03:01:19;;;;;;;10.10;9.10;;;4.30;99.90;;;;;;5025629;28;20748;-74
2023/02/14 03:06:35;;;;;;;9.05;8.15;;;4.30;99.90;;;;;;5030502;28;20260;-72
2023/02/14 03:09:12;;;;;;;9.55;8.57;;;4.30;99.90;;;;;;5024123;28;20314;-72
2023/02/14 03:11:47;;;;;;;9.90;8.45;;;4.30;99.90;;;;;;5027451;28;20199;-72
2023/02/14 03:14:20;;;;;;;8.85;7.95;;;4.30;99.90;;;;;;5026463;28;20246;-72
2023/02/14 03:16:59;;;;;;;8.48;7.68;;;4.30;99.90;;;;;;5027694;28;20211;-72
2023/02/14 03:22:30;;;;;;;8.43;7.53;;;4.30;99.90;;;;;;5030108;28;20198;-72
2023/02/14 03:25:06;;;;;;;8.18;7.38;;;4.40;99.90;;;;;;5031566;28;20309;-72
2023/02/14 03:27:38;;;;;;;8.50;7.60;;;4.50;99.90;;;;;;5027682;28;20346;-72
2023/02/14 03:30:13;;;;;;;8.10;7.30;;;4.50;99.90;;;;;;5030857;28;20247;-72
2023/02/14 03:32:45;;;;;;;7.45;6.80;;;4.50;99.90;;;;;;5026761;28;20281;-72
2023/02/14 03:35:19;;;;;;;8.20;7.30;;;4.40;99.90;;;;;;5027810;28;20254;-72
2023/02/14 03:37:53;;;;;;;8.43;7.63;;;4.40;99.90;;;;;;5031361;28;20286;-73
2023/02/14 03:40:24;;;;;;;9.05;7.63;;;4.40;99.90;;;;;;5026330;28;20334;-72
2023/02/14 03:42:55;;;;;;;9.05;8.10;;;4.40;99.90;;;;;;5030552;28;20287;-73
2023/02/14 03:45:27;;;;;;;8.40;7.60;;;4.40;99.90;;;;;;5029644;28;20295;-72
2023/02/14 03:47:57;;;;;;;8.52;7.72;;;4.40;99.90;;;;;;5013666;28;20219;-72
2023/02/14 03:50:27;;;;;;;10.02;9.02;;;4.30;99.90;;;;;;5021998;28;20314;-73
2023/02/14 03:52:56;;;;;;;9.00;8.10;;;4.20;99.90;;;;;;5011108;28;20329;-73
2023/02/14 03:55:32;;;;;;;8.55;7.75;;;4.10;99.90;;;;;;5027456;28;20302;-73
2023/02/14 03:58:06;;;;;;;8.73;7.90;;;4.10;99.90;;;;;;5009041;28;20252;-73
2023/02/14 04:00:39;;;;;;;8.07;7.32;;;4.10;99.90;;;;;;5029155;28;20302;-73
2023/02/14 04:03:11;;;;;;;9.18;8.30;;;4.20;99.90;;;;;;4993818;28;20688;-74
2023/02/14 04:05:42;;;;;;;7.97;7.18;;;4.20;99.90;;;;;;5020838;28;20215;-73
2023/02/14 04:08:11;;;;;;;8.13;7.38;;;4.20;99.90;;;;;;5027591;28;20227;-74
2023/02/14 04:10:42;;;;;;;8.02;7.28;;;4.20;99.90;;;;;;5028853;28;20910;-73
2023/02/14 04:13:09;;;;;;;8.15;7.38;;;4.20;99.90;;;;;;5025267;28;20235;-74
2023/02/14 04:15:36;;;;;;;8.30;7.60;;;4.30;99.90;;;;;;5027950;28;20830;-73
2023/02/14 04:20:47;;;;;;;7.50;6.80;;;4.30;99.90;;;;;;5027877;28;20239;-73
2023/02/14 04:23:14;;;;;;;7.32;6.63;;;4.30;99.90;;;;;;5026805;28;20283;-74
2023/02/14 04:25:44;;;;;;;7.43;6.78;;;4.20;99.90;;;;;;5028832;28;20637;-73
2023/02/14 04:28:12;;;;;;;7.22;6.53;;;4.20;99.90;;;;;;5025271;28;20299;-73
2023/02/14 04:30:39;;;;;;;7.13;6.43;;;4.20;99.90;;;;;;5005143;28;20279;-73
2023/02/14 04:33:07;;;;;;;6.88;6.28;;;4.20;99.90;;;;;;5029479;28;20294;-75
2023/02/14 04:35:34;;;;;;;7.10;6.50;;;4.20;99.90;;;;;;5006378;28;20227;-73
2023/02/14 04:38:01;;;;;;;7.47;6.55;;;4.20;99.90;;;;;;5027645;28;20674;-72
2023/02/14 04:40:29;;;;;;;7.38;6.70;;;4.20;99.90;;;;;;5027688;28;20798;-73
2023/02/14 04:42:58;;;;;;;7.10;6.45;;;4.20;99.90;;;;;;5027563;28;20286;-73
2023/02/14 04:45:26;;;;;;;7.57;6.90;;;4.10;99.90;;;;;;5035388;28;20226;-73
2023/02/14 04:47:52;;;;;;;7.45;6.72;;;4.20;99.90;;;;;;5024387;28;20242;-73
2023/02/14 04:50:22;;;;;;;6.88;6.28;;;4.20;99.90;;;;;;5010114;28;20223;-72
2023/02/14 04:52:49;;;;;;;6.68;6.07;;;4.20;99.90;;;;;;5028770;28;20214;-72
2023/02/14 04:55:16;;;;;;;7.53;6.82;;;4.20;99.90;;;;;;5026858;28;20298;-73
2023/02/14 04:57:43;;;;;;;7.50;6.70;;;4.20;99.90;;;;;;5029148;28;20284;-73
2023/02/14 05:00:14;;;;;;;7.28;6.60;;;4.20;99.90;;;;;;5022137;28;20811;-73
2023/02/14 05:02:41;;;;;;;8.32;7.53;;;4.20;99.90;;;;;;5028589;28;20275;-73
2023/02/14 05:05:08;;;;;;;7.68;6.97;;;4.10;99.90;;;;;;5025033;28;20643;-73
2023/02/14 05:07:35;;;;;;;7.25;6.65;;;4.10;99.90;;;;;;5029847;28;20286;-72
2023/02/14 05:10:03;;;;;;;7.85;7.15;;;4.10;99.90;;;;;;5026089;28;20313;-72
2023/02/14 05:12:30;;;;;;;7.53;6.82;;;4.10;99.90;;;;;;5029112;28;20242;-72
2023/02/14 05:14:57;;;;;;;6.60;6.00;;;4.00;99.90;;;;;;5026573;28;20766;-72
2023/02/14 05:17:26;;;;;;;7.47;6.78;;;4.00;99.90;;;;;;5027169;28;20283;-72
2023/02/14 05:19:53;;;;;;;7.15;6.57;;;4.00;99.90;;;;;;5026812;28;20270;-72
2023/02/14 05:22:19;;;;;;;7.78;6.97;;;3.90;99.90;;;;;;5028525;28;20692;-73
2023/02/14 05:24:46;;;;;;;7.95;7.20;;;3.90;99.90;;;;;;5027599;28;20303;-73
2023/02/14 05:27:13;;;;;;;7.20;6.55;;;3.80;99.90;;;;;;5027453;28;20282;-73
2023/02/14 05:29:40;;;;;;;6.93;6.32;;;3.80;99.90;;;;;;5010169;28;20623;-73
2023/02/14 05:32:08;;;;;;;7.30;6.60;;;3.80;99.90;;;;;;5023330;28;20333;-73
2023/02/14 05:34:37;;;;;;;6.93;6.25;;;3.80;99.90;;;;;;5024405;28;20219;-73
2023/02/14 05:37:04;;;;;;;6.90;6.30;;;3.80;99.90;;;;;;5028027;28;20257;-73
2023/02/14 05:39:31;;;;;;;7.47;6.80;;;3.80;99.90;;;;;;5028002;28;20310;-73
2023/02/14 05:41:58;;;;;;;7.78;7.00;;;3.80;99.90;;;;;;5028547;28;20764;-73
2023/02/14 05:44:25;;;;;;;7.47;6.78;;;3.80;99.90;;;;;;5025821;28;20310;-73
2023/02/14 05:46:53;;;;;;;7.82;7.13;;;3.80;99.90;;;;;;5025558;28;20283;-73
2023/02/14 05:49:20;;;;;;;7.40;6.70;;;3.80;99.90;;;;;;5027672;28;20219;-73
2023/02/14 05:51:49;;;;;;;6.50;5.90;;;3.70;99.90;;;;;;5026520;28;20764;-73
2023/02/14 05:54:16;;;;;;;6.55;5.95;;;3.80;99.90;;;;;;5007720;28;20302;-72
2023/02/14 05:56:43;;;;;;;7.00;6.40;;;3.80;99.90;;;;;;5026210;28;20203;-73
2023/02/14 05:59:10;;;;;;;7.43;6.72;;;3.80;99.90;;;;;;5024508;28;20317;-73
2023/02/14 06:01:37;;;;;;;7.70;6.93;;;3.80;99.90;;;;;;5026154;28;20200;-73
2023/02/14 06:04:04;;;;;;;7.43;6.72;;;3.70;99.90;;;;;;5029480;28;20311;-73
2023/02/14 06:06:31;;;;;;;6.72;6.13;;;3.70;99.90;;;;;;5025866;28;20271;-73
2023/02/14 06:09:00;;;;;;;6.18;5.68;;;3.70;99.90;;;;;;5031596;28;20410;-74
2023/02/14 06:11:27;;;;;;;6.20;5.70;;;3.70;99.90;;;;;;5031924;28;20952;-73
2023/02/14 06:13:54;;;;;;;6.32;5.82;;;3.70;99.90;;;;;;5028199;28;20299;-73
2023/02/14 06:16:21;;;;;;;6.38;5.85;;;3.70;99.90;;;;;;5030231;28;20291;-73
2023/02/14 06:18:48;;;;;;;7.25;6.60;;;3.80;99.90;;;;;;5025888;28;20298;-74
2023/02/14 06:21:15;;;;;;;7.53;6.93;;;3.80;99.90;;;;;;5007904;28;20204;-73
2023/02/14 06:23:43;;;;;;;7.68;6.97;;;3.70;99.90;;;;;;5031210;28;20302;-73
2023/02/14 06:26:11;;;;;;;7.68;6.97;;;3.70;99.90;;;;;;5013555;28;20233;-72
2023/02/14 06:28:38;;;;;;;7.88;6.45;;;3.70;99.90;;;;;;5026499;28;20637;-73
2023/02/14 06:31:06;;;;;;;7.25;6.65;;;3.70;99.90;;;;;;5028416;28;20456;-73
2023/02/14 06:33:32;;;;;;;8.18;7.03;;;3.70;99.90;;;;;;5016461;28;20795;-73
2023/02/14 06:35:59;;;;;;;8.43;7.57;;;3.70;99.90;;;;;;5032374;28;20307;-73
2023/02/14 06:38:26;;;;;;;7.70;7.00;;;3.80;99.90;;;;;;5033094;28;20314;-73
2023/02/14 06:40:54;;;;;;;6.82;6.22;;;3.80;99.90;;;;;;5028563;28;20306;-73
2023/02/14 06:43:22;;;;;;;6.00;5.50;;;3.80;99.90;;;;;;5015126;28;20578;-73
2023/02/14 06:45:51;;;;;;;6.55;6.00;;;3.80;99.90;;;;;;5031101;28;20283;-73
2023/02/14 06:48:18;;;;;;;6.75;6.15;;;3.80;99.90;;;;;;5032668;28;20648;-72
2023/02/14 06:50:46;;;;;;;6.20;5.68;;;3.80;99.90;;;;;;5030645;28;20286;-73
2023/02/14 06:53:13;;;;;;;5.82;5.32;;;3.80;99.90;;;;;;5031483;28;20727;-73
2023/02/14 06:55:40;;;;;;;5.32;4.93;;;3.80;99.90;;;;;;5035091;28;20282;-73
2023/02/14 06:58:08;;;;;;;6.05;5.55;;;3.80;99.90;;;;;;5024725;28;20306;-73
2023/02/14 07:00:36;;;;;;;5.72;5.22;;;3.80;99.90;;;;;;5032163;28;20310;-73
2023/02/14 07:03:03;;;;;;;5.22;4.82;;;3.80;99.90;;;;;;5028643;28;20224;-73
2023/02/14 07:05:30;;;;;;;7.03;6.15;;;3.70;99.90;;;;;;5028262;28;20250;-72
2023/02/14 07:07:57;;;;;;;6.13;5.63;;;3.70;99.90;;;;;;5029587;28;20688;-72
2023/02/14 07:10:25;;;;;;;6.57;5.97;;;3.70;99.90;;;;;;5027962;28;20310;-73
2023/02/14 07:12:52;;;;;;;6.28;5.70;;;3.70;99.90;;;;;;5014955;28;20222;-72
2023/02/14 07:15:19;;;;;;;6.43;5.90;;;3.80;99.90;;;;;;5027056;28;20648;-73
2023/02/14 07:17:47;;;;;;;5.65;5.15;;;3.80;99.90;;;;;;5032969;28;20748;-73
2023/02/14 07:20:15;;;;;;;6.45;5.85;;;3.80;99.90;;;;;;5008418;28;20250;-71
2023/02/14 07:22:42;;;;;;;5.57;5.07;;;3.80;99.90;;;;;;5024232;28;20257;-73
2023/02/14 07:25:09;;;;;;;5.85;5.35;;;3.90;99.90;;;;;;5030138;28;20788;-72
2023/02/14 07:27:37;;;;;;;5.78;5.28;;;3.90;99.90;;;;;;5030280;28;20283;-73
2023/02/14 07:30:05;;;;;;;5.82;5.32;;;3.90;99.90;;;;;;5026304;28;20263;-73
2023/02/14 07:32:32;;;;;;;6.05;5.45;;;4.00;99.90;;;;;;5029889;28;20243;-73
2023/02/14 07:35:00;;;;;;;6.40;5.90;;;4.60;99.90;;;;;;5027501;28;20335;-73
2023/02/14 07:37:27;;;;;;;5.72;5.22;;;5.80;99.90;;;;;;5029782;28;20242;-74
2023/02/14 07:39:54;;;;;;;6.22;5.63;;;6.90;99.90;;;;;;5027737;28;20294;-73
2023/02/14 07:42:22;;;;;;;6.53;6.03;;;7.90;99.90;;;;;;5031917;28;20283;-75
2023/02/14 07:44:48;;;;;;;8.85;6.60;;;8.50;99.90;;;;;;5028090;28;20787;-72
2023/02/14 07:47:16;;;;;;;6.43;5.88;;;9.00;99.90;;;;;;5007771;28;20195;-72
2023/02/14 07:49:43;;;;;;;7.82;7.13;;;9.50;99.90;;;;;;4991412;28;20223;-72
2023/02/14 07:52:11;;;;;;;8.00;7.25;;;10.00;99.90;;;;;;5023783;28;21291;-74
2023/02/14 07:54:38;;;;;;;8.75;7.95;;;10.40;99.90;;;;;;5024694;28;20216;-74
2023/02/14 07:57:05;;;;;;;7.80;7.00;;;10.80;99.90;;;;;;4992052;28;20196;-73
2023/02/14 07:59:32;;;;;;;9.50;7.47;;;11.00;99.90;;;;;;5010068;28;20220;-74
2023/02/14 08:01:59;;;;;;;8.05;7.28;;;11.30;99.90;;;;;;5007678;28;20200;-74
2023/02/14 08:04:27;;;;;;;6.15;5.55;;;11.40;99.90;;;;;;5009694;28;20302;-74
2023/02/14 08:06:55;;;;;;;7.45;6.70;;;11.80;99.90;;;;;;5027995;28;20278;-73
2023/02/14 08:09:26;;;;;;;7.90;7.10;;;12.30;99.90;;;;;;5023770;28;20244;-74
2023/02/14 08:14:39;;;;;;;8.63;6.13;;;12.90;99.90;;;;;;5026747;28;20618;-74
2023/02/14 08:17:08;;;;;;;7.72;6.55;;;13.10;99.90;;;;;;5027937;28;20281;-72
2023/02/14 08:19:36;;;;;;;10.48;7.05;;;13.10;99.90;;;;;;5023225;28;20261;-72
2023/02/14 08:22:03;;;;;;;7.97;7.18;;;13.00;99.90;;;;;;5021278;28;20283;-74
2023/02/14 08:24:31;;;;;;;6.65;5.95;;;13.20;99.90;;;;;;5022552;28;20322;-73
2023/02/14 08:26:59;;;;;;;6.85;6.25;;;13.40;99.90;;;;;;5024354;28;20290;-74
2023/02/14 08:29:26;;;;;;;6.15;5.55;;;13.50;99.90;;;;;;5022308;28;20312;-76
2023/02/14 08:31:53;;;;;;;7.68;5.40;;;13.60;99.90;;;;;;5024790;28;20279;-76
2023/02/14 08:34:20;;;;;;;6.32;5.72;;;13.70;99.90;;;;;;5019980;28;20230;-74
2023/02/14 08:36:47;;;;;;;9.75;5.72;;;13.40;99.90;;;;;;5024469;28;20294;-72
2023/02/14 08:39:15;;;;;;;6.53;5.35;;;13.40;99.90;;;;;;5009649;28;20306;-72
2023/02/14 08:41:43;;;;;;;7.60;5.85;;;13.30;99.90;;;;;;5026076;28;20654;-74
2023/02/14 08:44:10;;;;;;;5.82;4.68;;;13.30;99.90;;;;;;5024758;28;20294;-73
2023/02/14 08:46:37;;;;;;;5.75;5.25;;;13.50;99.90;;;;;;5020422;28;21112;-73
2023/02/14 08:49:05;;;;;;;5.45;4.95;;;13.70;99.90;;;;;;5026487;28;20326;-72
2023/02/14 08:51:32;;;;;;;6.00;5.30;;;14.10;99.90;;;;;;5023446;28;20318;-74
2023/02/14 08:53:59;;;;;;;5.53;5.00;;;14.50;99.90;;;;;;5030258;28;20329;-73
2023/02/14 08:56:26;;;;;;;4.68;4.28;;;14.60;99.90;;;;;;5025962;28;20299;-73
2023/02/14 08:58:55;;;;;;;5.78;5.28;;;14.70;99.90;;;;;;5024446;28;20314;-73
2023/02/14 09:01:22;;;;;;;5.78;5.22;;;14.70;99.90;;;;;;5021326;28;20299;-73
2023/02/14 09:03:49;;;;;;;5.85;5.05;;;14.50;99.90;;;;;;5021971;28;20759;-74
2023/02/14 09:06:17;;;;;;;5.15;4.65;;;14.50;99.90;;;;;;5025910;28;20286;-72
2023/02/14 09:08:45;;;;;;;5.93;5.05;;;14.00;99.90;;;;;;5026181;28;20314;-73
2023/02/14 09:11:14;;;;;;;5.63;5.05;;;13.90;99.90;;;;;;5003646;28;20214;-72
2023/02/14 09:13:42;;;;;;;5.75;5.25;;;14.00;99.90;;;;;;5022083;28;20339;-73
2023/02/14 09:16:13;;;;;;;5.43;4.93;;;14.30;99.90;;;;;;5019632;28;20728;-73
2023/02/14 09:18:40;;;;;;;5.93;5.32;;;14.90;99.90;;;;;;5029628;28;20322;-73
2023/02/14 09:21:09;;;;;;;5.85;4.93;;;15.30;99.40;;;;;;5022214;28;20332;-72
2023/02/14 09:23:36;;;;;;;9.15;5.93;;;15.10;98.60;;;;;;5021598;28;20696;-72
2023/02/14 09:26:05;;;;;;;5.43;4.93;;;15.10;98.60;;;;;;5019708;28;20286;-75
2023/02/14 09:28:33;;;;;;;5.97;4.93;;;15.30;98.10;;;;;;5004381;28;20338;-73
2023/02/14 09:31:11;;;;;;;5.25;4.75;;;15.30;97.20;;;;;;5022969;28;20334;-73
2023/02/14 09:33:38;;;;;;;4.93;4.43;;;15.50;96.90;;;;;;5020186;28;20294;-73
2023/02/14 09:36:12;;;;;;;6.47;4.65;;;15.40;97.20;;;;;;5027236;28;20286;-74
2023/02/14 09:38:39;;;;;;;5.97;4.88;;;15.50;97.10;;;;;;5028794;28;20774;-74
2023/02/14 09:41:08;;;;;;;5.18;4.68;;;15.60;97.50;;;;;;5028255;28;20306;-72
2023/02/14 09:43:39;;;;;;;5.80;5.22;;;15.50;97.10;;;;;;5031426;28;20225;-74
2023/02/14 09:46:11;;;;;;;5.70;4.97;;;15.20;96.80;;;;;;5015875;28;20188;-74
2023/02/14 09:48:42;;;;;;;6.53;5.18;;;14.90;96.90;;;;;;5030349;28;20354;-74
2023/02/14 09:51:15;;;;;;;5.25;4.75;;;14.90;97.10;;;;;;5031173;28;20210;-74
2023/02/14 09:53:46;;;;;;;7.63;5.55;;;15.00;96.70;;;;;;5029327;28;21077;-74
2023/02/14 09:56:20;;;;;;;6.00;5.40;;;15.20;96.80;;;;;;5030131;28;20768;-74
2023/02/14 09:58:56;;;;;;;8.52;5.55;;;15.10;95.90;;;;;;5028929;28;20227;-73
2023/02/14 10:01:29;;;;;;;5.55;4.90;;;14.80;95.90;;;;;;5025194;28;20289;-74
2023/02/14 10:04:10;;;;;;;5.20;4.72;;;14.50;96.00;;;;;;5026478;28;20342;-74
2023/02/14 10:06:47;;;;;;;5.80;4.65;;;14.60;95.80;;;;;;5027695;28;20288;-72
2023/02/14 10:09:39;;;;;;;5.93;4.35;;;14.80;95.30;;;;;;5029373;28;20318;-74
2023/02/14 10:12:14;;;;;;;4.28;3.78;;;14.90;95.00;;;;;;5022373;28;20291;-73
2023/02/14 10:14:42;;;;;;;5.15;4.65;;;15.00;94.90;;;;;;5011188;28;20685;-72
2023/02/14 10:17:15;;;;;;;6.53;4.47;;;15.10;94.70;;;;;;5029888;28;20246;-74
2023/02/14 10:19:49;;;;;;;5.28;4.78;;;15.30;94.60;;;;;;5030224;28;20318;-73
2023/02/14 10:22:18;;;;;;;4.75;4.20;;;15.20;94.30;;;;;;5028519;28;20238;-74
2023/02/14 10:24:49;;;;;;;5.40;4.85;;;15.40;95.00;;;;;;5027192;28;20314;-74
2023/02/14 10:27:29;;;;;;;7.88;4.68;;;15.70;94.50;;;;;;5015503;28;20282;-72
2023/02/14 10:29:56;;;;;;;6.88;4.75;;;16.10;94.10;;;;;;5033345;28;20309;-75
2023/02/14 10:32:32;;;;;;;5.28;4.65;;;16.20;94.00;;;;;;5028272;28;20288;-72
2023/02/14 10:35:04;;;;;;;4.82;4.40;;;16.30;93.60;;;;;;5029963;28;20378;-74
2023/02/14 10:37:43;;;;;;;5.93;4.90;;;16.20;93.80;;;;;;5022324;28;21400;-74
2023/02/14 10:40:35;;;;;;;4.78;4.35;;;16.30;93.70;;;;;;5026255;28;20235;-74
2023/02/14 10:43:14;;;;;;;5.35;4.57;;;16.40;93.30;;;;;;5026078;28;20228;-74
2023/02/14 10:45:49;;;;;;;5.10;4.60;;;16.60;93.50;;;;;;5026543;28;20223;-73
2023/02/14 10:48:28;;;;;;;6.97;4.45;;;16.90;93.20;;;;;;5010931;28;20309;-75
2023/02/14 10:51:01;;;;;;;6.18;4.50;;;17.00;92.80;;;;;;5012587;28;20214;-73
2023/02/14 10:53:35;;;;;;;7.43;4.80;;;16.90;92.00;;;;;;5013068;28;20336;-73
2023/02/14 10:56:07;;;;;;;4.90;4.38;;;16.80;91.60;;;;;;5025989;28;20338;-74
2023/02/14 10:58:38;;;;;;;4.70;4.20;;;16.80;92.50;;;;;;5025810;28;20223;-74
2023/02/14 11:01:10;;;;;;;5.00;4.50;;;17.00;91.90;;;;;;5021783;28;20295;-75
2023/02/14 11:03:41;;;;;;;5.47;4.82;;;17.00;91.50;;;;;;5027010;28;20251;-74
2023/02/14 11:06:08;;;;;;;5.65;5.05;;;17.00;91.40;;;;;;5023847;28;20203;-74
2023/02/14 11:08:37;;;;;;;5.95;5.13;;;16.90;91.00;;;;;;5025660;28;20351;-73
2023/02/14 11:11:14;;;;;;;4.07;3.78;;;16.90;91.20;;;;;;5025340;28;20732;-75
2023/02/14 11:13:41;;;;;;;5.07;3.95;;;17.00;91.60;;;;;;5027595;28;20674;-74
2023/02/14 11:16:11;;;;;;;5.38;4.32;;;17.20;91.70;;;;;;5008575;28;20306;-73
2023/02/14 11:18:41;;;;;;;5.10;4.20;;;17.50;91.20;;;;;;5026471;28;20307;-74
2023/02/14 11:21:11;;;;;;;4.53;4.05;;;17.60;91.10;;;;;;5008011;28;20227;-74
2023/02/14 11:23:41;;;;;;;5.40;4.57;;;17.90;91.00;;;;;;5022852;28;20896;-74
2023/02/14 11:26:20;;;;;;;5.40;4.90;;;17.90;90.60;;;;;;5028666;28;20282;-75
2023/02/14 11:28:52;;;;;;;5.05;4.05;;;18.00;90.40;;;;;;5030193;28;20334;-74
2023/02/14 11:31:28;;;;;;;4.68;4.28;;;18.00;90.20;;;;;;5026180;28;20242;-73
2023/02/14 11:33:58;;;;;;;4.68;4.28;;;17.90;90.10;;;;;;5028264;28;20242;-72
2023/02/14 11:36:26;;;;;;;5.40;3.90;;;17.70;89.20;;;;;;5025967;28;20303;-74
2023/02/14 11:39:05;;;;;;;5.43;4.28;;;17.40;88.60;;;;;;5007342;28;20719;-74
2023/02/14 11:41:47;;;;;;;5.07;4.45;;;17.40;88.40;;;;;;5024195;28;20282;-74
2023/02/14 11:44:23;;;;;;;5.35;4.45;;;17.40;87.40;;;;;;5012328;28;20223;-74
2023/02/14 11:46:51;;;;;;;4.97;4.00;;;17.30;88.80;;;;;;5024909;28;20234;-74
2023/02/14 11:49:28;;;;;;;4.57;4.18;;;17.30;88.70;;;;;;5028511;28;21022;-74
2023/02/14 11:51:58;;;;;;;5.30;4.10;;;17.30;88.20;;;;;;5030181;28;20287;-74
2023/02/14 11:54:31;;;;;;;4.53;4.13;;;17.50;89.00;;;;;;5026058;28;20307;-73
2023/02/14 11:57:04;;;;;;;5.30;4.60;;;17.50;88.10;;;;;;5024251;28;20196;-74
2023/02/14 11:59:35;;;;;;;5.55;4.40;;;17.40;88.30;;;;;;5011530;28;20237;-74
2023/02/14 12:02:20;;;;;;;5.28;4.78;;;17.50;88.10;;;;;;5007955;28;20202;-73
2023/02/14 12:04:51;;;;;;;5.28;4.78;;;17.30;87.80;;;;;;5010742;28;20223;-74
2023/02/14 12:07:22;;;;;;;4.68;4.28;;;17.30;87.00;;;;;;5029521;28;20676;-74
2023/02/14 12:10:08;;;;;;;4.68;4.18;;;17.00;87.80;;;;;;5027989;28;20310;-73
2023/02/14 12:12:36;;;;;;;4.78;4.38;;;17.10;87.40;;;;;;5011057;28;20282;-74
2023/02/14 12:15:27;;;;;;;4.85;4.40;;;17.40;88.40;;;;;;5023051;28;20306;-74
2023/02/14 12:18:01;;;;;;;4.63;4.07;;;17.60;88.00;;;;;;5026954;28;20572;-74
2023/02/14 12:20:40;;;;;;;4.93;4.00;;;17.70;87.40;;;;;;5025695;28;20825;-74
2023/02/14 12:23:15;;;;;;;4.35;3.95;;;17.80;87.10;;;;;;5023070;28;20289;-74
2023/02/14 12:25:47;;;;;;;4.28;3.85;;;18.00;86.10;;;;;;5008697;28;20198;-74
2023/02/14 12:28:19;;;;;;;5.38;4.28;;;18.00;86.60;;;;;;5025305;28;20277;-74
2023/02/14 12:30:46;;;;;;;4.15;3.80;;;17.90;85.90;;;;;;5026704;28;20283;-74
2023/02/14 12:33:18;;;;;;;4.25;3.85;;;17.80;85.80;;;;;;5026998;28;20977;-73
2023/02/14 12:36:03;;;;;;;6.25;4.00;;;17.90;86.80;;;;;;5027781;28;20219;-74
2023/02/14 12:38:39;;;;;;;5.93;4.07;;;17.90;85.00;;;;;;5023799;28;20743;-72
2023/02/14 12:41:20;;;;;;;5.57;4.05;;;18.00;85.70;;;;;;5026669;28;20669;-73
2023/02/14 12:43:50;;;;;;;3.80;3.50;;;18.00;85.10;;;;;;5025133;28;20307;-74
2023/02/14 12:46:32;;;;;;;4.72;4.03;;;18.00;85.10;;;;;;5020823;28;20196;-73
2023/02/14 12:49:24;;;;;;;4.75;3.75;;;18.00;85.70;;;;;;5019790;28;20966;-75
2023/02/14 12:52:04;;;;;;;3.80;3.30;;;18.20;85.00;;;;;;5024249;28;20291;-74
2023/02/14 12:54:52;;;;;;;3.35;3.05;;;18.00;81.90;;;;;;5006878;28;21898;-73
2023/02/14 12:57:35;;;;;;;5.95;3.20;;;17.80;81.50;;;;;;4990860;28;20198;-75
2023/02/14 13:00:19;;;;;;;4.18;3.60;;;17.70;82.30;;;;;;5007931;28;20310;-73
2023/02/14 13:03:22;;;;;;;3.90;3.60;;;17.70;82.20;;;;;;4990487;28;20307;-74
2023/02/14 13:05:58;;;;;;;3.45;3.15;;;17.70;82.20;;;;;;5022514;28;20257;-74
2023/02/14 13:08:47;;;;;;;5.15;3.80;;;17.70;82.80;;;;;;5003442;28;20303;-75
2023/02/14 13:11:25;;;;;;;3.90;3.35;;;17.70;82.40;;;;;;5021012;28;20299;-74
2023/02/14 13:14:03;;;;;;;4.13;3.45;;;17.70;82.80;;;;;;5023765;28;20325;-73
2023/02/14 13:16:36;;;;;;;3.72;3.10;;;17.80;82.50;;;;;;5021752;28;20230;-73
2023/02/14 13:19:09;;;;;;;3.90;3.58;;;17.70;82.50;;;;;;5004023;28;20241;-73
2023/02/14 13:21:39;;;;;;;5.88;3.25;;;17.80;83.20;;;;;;5026838;28;20307;-75
2023/02/14 13:24:17;;;;;;;3.47;3.17;;;17.80;82.80;;;;;;5023073;28;20298;-75
2023/02/14 13:26:47;;;;;;;5.22;3.70;;;17.80;81.10;;;;;;5023405;28;21728;-73
2023/02/14 13:29:18;;;;;;;3.35;2.92;;;17.70;82.20;;;;;;5021732;28;20231;-74